createdAt,value
2022-11-27T00:02:08.577Z,4.35
2022-11-27T00:06:12.371Z,4.36
2022-11-27T00:10:13.646Z,4.37
2022-11-27T00:14:16.864Z,4.40
2022-11-27T00:18:18.091Z,4.41
2022-11-27T00:22:19.386Z,4.45
2022-11-27T00:26:21.205Z,4.44
2022-11-27T00:30:22.513Z,4.45
2022-11-27T00:34:23.832Z,4.46
2022-11-27T00:38:25.137Z,4.48
2022-11-27T00:42:26.475Z,4.51
2022-11-27T00:46:29.637Z,4.53
2022-11-27T00:50:32.144Z,4.55
2022-11-27T00:54:33.795Z,4.55
2022-11-27T00:58:35.404Z,4.58
2022-11-27T01:02:36.748Z,4.59
2022-11-27T01:06:38.411Z,4.62
2022-11-27T01:10:39.734Z,4.65
2022-11-27T01:14:41.190Z,4.66
2022-11-27T01:18:43.711Z,4.69
2022-11-27T01:22:45.049Z,4.69
2022-11-27T01:26:46.379Z,4.71
2022-11-27T01:30:47.695Z,4.73
2022-11-27T01:34:49.096Z,4.75
2022-11-27T01:38:50.399Z,4.77
2022-11-27T01:42:51.693Z,4.78
2022-11-27T01:47:14.679Z,4.76
2022-11-27T01:51:16.063Z,4.72
2022-11-27T01:55:27.686Z,4.72
2022-11-27T01:59:29.212Z,4.74
2022-11-27T02:03:30.546Z,4.73
2022-11-27T02:07:31.996Z,4.75
2022-11-27T02:11:42.926Z,4.79
2022-11-27T02:15:48.381Z,4.77
2022-11-27T02:19:55.872Z,4.78
2022-11-27T02:24:06.645Z,4.78
2022-11-27T02:28:20.630Z,4.78
2022-11-27T02:32:57.613Z,4.81
2022-11-27T02:37:17.310Z,4.81
2022-11-27T02:41:26.064Z,4.83
2022-11-27T02:45:32.721Z,4.85
2022-11-27T02:49:36.075Z,4.89
2022-11-27T02:53:42.952Z,4.93
2022-11-27T02:57:45.575Z,4.94
2022-11-27T03:01:51.373Z,4.95
2022-11-27T03:05:56.246Z,4.96
2022-11-27T03:10:01.280Z,4.97
2022-11-27T03:14:05.486Z,4.99
2022-11-27T03:18:13.668Z,4.98
2022-11-27T03:22:16.346Z,4.96
2022-11-27T03:26:17.736Z,4.99
2022-11-27T03:30:19.086Z,4.97
2022-11-27T03:34:20.407Z,4.97
2022-11-27T03:38:21.763Z,5.00
2022-11-27T03:42:30.326Z,5.00
2022-11-27T03:46:39.714Z,5.02
2022-11-27T03:50:41.096Z,5.02
2022-11-27T03:54:55.008Z,5.03
2022-11-27T03:59:00.871Z,5.01
2022-11-27T04:03:03.223Z,4.98
2022-11-27T04:07:04.475Z,4.97
2022-11-27T04:11:05.810Z,4.97
2022-11-27T04:15:07.731Z,4.96
2022-11-27T04:19:09.811Z,4.93
2022-11-27T04:23:11.119Z,4.93
2022-11-27T04:27:12.492Z,4.94
2022-11-27T04:31:13.809Z,4.96
2022-11-27T04:35:15.422Z,4.96
2022-11-27T04:39:16.768Z,4.97
2022-11-27T04:43:18.077Z,4.97
2022-11-27T04:47:19.387Z,4.95
2022-11-27T04:51:21.110Z,4.93
2022-11-27T04:55:22.712Z,4.95
2022-11-27T04:59:24.075Z,4.93
2022-11-27T05:03:25.431Z,4.93
2022-11-27T05:07:26.777Z,4.94
2022-11-27T05:11:28.502Z,4.91
2022-11-27T05:15:29.810Z,4.90
2022-11-27T05:19:31.696Z,4.87
2022-11-27T05:23:33.687Z,4.85
2022-11-27T05:27:34.984Z,4.84
2022-11-27T05:31:36.589Z,4.82
2022-11-27T05:35:38.411Z,4.80
2022-11-27T05:39:40.196Z,4.79
2022-11-27T05:43:41.893Z,4.77
2022-11-27T05:47:43.281Z,4.76
2022-11-27T05:51:50.721Z,4.71
2022-11-27T05:55:52.872Z,4.73
2022-11-27T05:59:54.318Z,4.73
2022-11-27T06:03:55.669Z,4.75
2022-11-27T06:07:57.034Z,4.73
2022-11-27T06:11:58.583Z,4.72
2022-11-27T06:16:03.642Z,4.72
2022-11-27T06:20:05.482Z,4.70
2022-11-27T06:24:07.004Z,4.70
2022-11-27T06:28:08.641Z,4.72
2022-11-27T06:32:09.978Z,4.74
2022-11-27T06:36:11.358Z,4.72
2022-11-27T06:40:12.884Z,4.71
2022-11-27T06:44:14.231Z,4.74
2022-11-27T06:48:15.512Z,4.74
2022-11-27T06:52:16.771Z,4.76
2022-11-27T06:56:19.487Z,4.76
2022-11-27T07:00:20.887Z,4.73
2022-11-27T07:04:22.359Z,4.75
2022-11-27T07:08:23.617Z,4.75
2022-11-27T07:12:24.894Z,4.79
2022-11-27T07:16:26.616Z,4.81
2022-11-27T07:20:28.448Z,4.83
2022-11-27T07:24:29.908Z,4.84
2022-11-27T07:28:31.182Z,4.87
2022-11-27T07:32:33.107Z,4.88
2022-11-27T07:36:34.366Z,4.90
2022-11-27T07:40:38.063Z,4.96
2022-11-27T07:44:39.689Z,4.98
2022-11-27T07:48:41.475Z,5.00
2022-11-27T07:52:42.767Z,5.01
2022-11-27T07:56:44.043Z,5.03
2022-11-27T08:00:45.430Z,5.05
2022-11-27T08:04:46.851Z,5.06
2022-11-27T08:08:48.527Z,5.09
2022-11-27T08:12:49.906Z,5.12
2022-11-27T08:16:51.160Z,5.15
2022-11-27T08:20:52.498Z,5.19
2022-11-27T08:24:53.807Z,5.20
2022-11-27T08:28:56.122Z,5.25
2022-11-27T08:32:57.495Z,5.31
2022-11-27T08:36:59.057Z,5.33
2022-11-27T08:41:01.359Z,5.39
2022-11-27T08:45:04.353Z,5.44
2022-11-27T08:49:05.643Z,5.41
2022-11-27T08:53:06.984Z,5.39
2022-11-27T08:57:08.214Z,5.36
2022-11-27T09:01:19.737Z,5.40
2022-11-27T09:05:21.066Z,5.50
2022-11-27T09:09:22.710Z,5.52
2022-11-27T09:13:23.935Z,5.58
2022-11-27T09:17:25.296Z,5.58
2022-11-27T09:21:28.071Z,5.65
2022-11-27T09:25:29.387Z,5.66
2022-11-27T09:29:30.639Z,5.70
2022-11-27T09:33:32.891Z,5.76
2022-11-27T09:37:34.176Z,5.83
2022-11-27T09:41:41.585Z,5.90
2022-11-27T09:45:49.191Z,5.99
2022-11-27T09:50:23.272Z,6.10
2022-11-27T09:54:25.790Z,6.18
2022-11-27T09:58:36.715Z,6.31
2022-11-27T10:02:38.093Z,6.39
2022-11-27T10:06:45.675Z,6.34
2022-11-27T10:11:03.221Z,6.42
2022-11-27T10:15:11.207Z,6.51
2022-11-27T10:19:22.314Z,6.60
2022-11-27T10:23:26.687Z,6.69
2022-11-27T10:27:32.868Z,6.78
2022-11-27T10:31:34.262Z,6.84
2022-11-27T10:35:35.646Z,6.90
2022-11-27T10:39:42.382Z,6.92
2022-11-27T10:43:44.774Z,7.03
2022-11-27T10:47:49.202Z,7.13
2022-11-27T10:51:50.440Z,7.24
2022-11-27T10:55:54.472Z,7.34
2022-11-27T11:00:06.002Z,7.40
2022-11-27T11:04:31.408Z,7.43
2022-11-27T11:08:30.007Z,7.45
2022-11-27T11:12:31.289Z,7.51
2022-11-27T11:16:41.620Z,7.53
2022-11-27T11:20:44.375Z,7.62
2022-11-27T11:24:53.084Z,7.74
2022-11-27T11:28:55.789Z,7.87
2022-11-27T11:33:02.101Z,7.88
2022-11-27T11:37:07.978Z,7.80
2022-11-27T11:41:09.711Z,7.81
2022-11-27T11:45:11.027Z,7.85
2022-11-27T11:49:18.068Z,7.92
2022-11-27T11:53:38.702Z,7.95
2022-11-27T11:58:02.839Z,7.99
2022-11-27T12:02:23.041Z,8.06
2022-11-27T12:06:37.088Z,8.13
2022-11-27T12:10:48.895Z,8.21
2022-11-27T12:14:55.452Z,8.28
2022-11-27T12:19:15.603Z,8.38
2022-11-27T12:23:35.704Z,8.51
2022-11-27T12:28:06.678Z,8.59
2022-11-27T12:32:10.674Z,8.67
2022-11-27T12:36:30.517Z,8.71
2022-11-27T12:40:37.988Z,8.72
2022-11-27T12:44:47.239Z,8.75
2022-11-27T12:49:11.675Z,8.77
2022-11-27T12:53:23.183Z,8.85
2022-11-27T12:57:38.948Z,8.80
2022-11-27T13:01:45.830Z,8.83
2022-11-27T13:05:53.741Z,8.76
2022-11-27T13:10:03.123Z,8.77
2022-11-27T13:14:12.043Z,8.76
2022-11-27T13:18:15.552Z,8.73
2022-11-27T13:22:27.748Z,8.68
2022-11-27T13:26:38.932Z,8.64
2022-11-27T13:30:40.322Z,8.58
2022-11-27T13:34:43.952Z,8.55
2022-11-27T13:38:45.575Z,8.50
2022-11-27T13:42:50.088Z,8.44
2022-11-27T13:46:54.789Z,8.39
2022-11-27T13:50:56.416Z,8.34
2022-11-27T13:55:02.826Z,8.30
2022-11-27T13:59:20.820Z,8.26
2022-11-27T14:03:29.443Z,8.22
2022-11-27T14:07:46.210Z,8.16
2022-11-27T14:11:47.786Z,8.11
2022-11-27T14:16:01.829Z,8.10
2022-11-27T14:20:20.888Z,8.08
2022-11-27T14:24:25.859Z,8.04
2022-11-27T14:28:27.252Z,7.99
2022-11-27T14:32:35.226Z,7.96
2022-11-27T14:36:36.459Z,7.93
2022-11-27T14:40:37.970Z,7.91
2022-11-27T14:44:39.218Z,7.87
2022-11-27T14:48:45.772Z,7.84
2022-11-27T14:52:54.968Z,7.80
2022-11-27T14:56:57.343Z,7.79
2022-11-27T15:01:01.803Z,7.75
2022-11-27T15:05:05.281Z,7.73
2022-11-27T15:09:30.783Z,7.76
2022-11-27T15:13:29.724Z,7.72
2022-11-27T15:17:32.814Z,7.70
2022-11-27T15:21:37.019Z,7.70
2022-11-27T15:25:40.488Z,7.68
2022-11-27T15:30:00.529Z,7.65
2022-11-27T15:34:06.709Z,7.63
2022-11-27T15:38:09.813Z,7.56
2022-11-27T15:42:11.459Z,7.53
2022-11-27T15:46:14.167Z,7.53
2022-11-27T15:50:17.244Z,7.48
2022-11-27T15:54:18.862Z,7.48
2022-11-27T15:58:20.159Z,7.46
2022-11-27T16:02:23.218Z,7.45
2022-11-27T16:06:24.693Z,7.42
2022-11-27T16:10:26.066Z,7.40
2022-11-27T16:14:30.381Z,7.37
2022-11-27T16:18:35.452Z,7.34
2022-11-27T16:22:36.961Z,7.35
2022-11-27T16:26:38.410Z,7.30
2022-11-27T16:30:39.848Z,7.30
2022-11-27T16:34:41.556Z,7.32
2022-11-27T16:38:43.319Z,7.29
2022-11-27T16:42:45.082Z,7.30
2022-11-27T16:46:50.686Z,7.32
2022-11-27T16:51:00.982Z,7.32
2022-11-27T16:55:02.724Z,7.30
2022-11-27T16:59:06.955Z,7.27
2022-11-27T17:03:08.182Z,7.30
2022-11-27T17:07:10.295Z,7.28
2022-11-27T17:11:13.051Z,7.26
2022-11-27T17:15:14.445Z,7.23
2022-11-27T17:19:15.761Z,7.22
2022-11-27T17:23:17.126Z,7.22
2022-11-27T17:27:18.826Z,7.21
2022-11-27T17:31:21.552Z,7.20
2022-11-27T17:35:22.819Z,7.19
2022-11-27T17:39:25.344Z,7.15
2022-11-27T17:43:27.971Z,7.10
2022-11-27T17:47:29.879Z,7.06
2022-11-27T17:51:32.666Z,7.03
2022-11-27T17:55:34.218Z,6.97
2022-11-27T17:59:35.467Z,6.88
2022-11-27T18:03:36.784Z,6.82
2022-11-27T18:07:38.151Z,6.81
2022-11-27T18:11:39.698Z,6.79
2022-11-27T18:15:42.578Z,6.75
2022-11-27T18:19:44.125Z,6.64
2022-11-27T18:24:20.759Z,6.59
2022-11-27T18:28:08.792Z,6.55
2022-11-27T18:32:10.824Z,6.48
2022-11-27T18:36:12.704Z,6.41
2022-11-27T18:40:14.069Z,6.30
2022-11-27T18:44:15.408Z,6.20
2022-11-27T18:48:16.691Z,6.13
2022-11-27T18:52:18.073Z,6.07
2022-11-27T18:56:20.941Z,6.04
2022-11-27T19:00:22.820Z,5.99
2022-11-27T19:04:24.076Z,5.90
2022-11-27T19:08:25.871Z,5.78
2022-11-27T19:12:27.131Z,5.77
2022-11-27T19:16:32.900Z,5.73
2022-11-27T19:20:37.951Z,5.63
2022-11-27T19:24:39.299Z,5.64
2022-11-27T19:28:40.934Z,5.66
2022-11-27T19:32:42.906Z,5.63
2022-11-27T19:36:44.168Z,5.64
2022-11-27T19:40:45.435Z,5.62
2022-11-27T19:44:46.727Z,5.60
2022-11-27T19:48:48.378Z,5.63
2022-11-27T19:52:49.607Z,5.59
2022-11-27T19:56:51.136Z,5.56
2022-11-27T20:00:52.498Z,5.51
2022-11-27T20:04:54.236Z,5.54
2022-11-27T20:08:58.640Z,5.53
2022-11-27T20:13:01.196Z,5.45
2022-11-27T20:17:03.165Z,5.38
2022-11-27T20:21:08.859Z,5.36
2022-11-27T20:25:19.464Z,5.32
2022-11-27T20:29:21.759Z,5.29
2022-11-27T20:33:23.808Z,5.30
2022-11-27T20:37:25.391Z,5.31
2022-11-27T20:41:26.776Z,5.31
2022-11-27T20:45:28.140Z,5.32
2022-11-27T20:49:29.528Z,5.36
2022-11-27T20:53:30.907Z,5.35
2022-11-27T20:57:32.231Z,5.37
2022-11-27T21:01:35.276Z,5.34
2022-11-27T21:05:36.644Z,5.28
2022-11-27T21:09:37.958Z,5.25
2022-11-27T21:13:39.772Z,5.19
2022-11-27T21:17:41.213Z,5.17
2022-11-27T21:21:43.143Z,5.14
2022-11-27T21:25:44.501Z,5.13
2022-11-27T21:29:45.819Z,5.12
2022-11-27T21:33:48.034Z,5.11
2022-11-27T21:37:49.327Z,5.06
2022-11-27T21:41:52.362Z,5.03
2022-11-27T21:45:53.912Z,5.01
2022-11-27T21:49:55.311Z,4.99
2022-11-27T21:53:57.743Z,4.99
2022-11-27T21:57:59.492Z,5.03
2022-11-27T22:02:00.966Z,5.06
2022-11-27T22:06:07.504Z,5.04
2022-11-27T22:10:09.667Z,5.01
2022-11-27T22:14:11.451Z,4.98
2022-11-27T22:18:13.078Z,4.95
2022-11-27T22:22:14.339Z,4.96
2022-11-27T22:26:16.785Z,4.98
2022-11-27T22:30:18.687Z,4.95
2022-11-27T22:34:20.086Z,4.91
2022-11-27T22:38:21.362Z,4.91
2022-11-27T22:42:22.640Z,4.89
2022-11-27T22:46:28.942Z,4.89
2022-11-27T22:50:30.229Z,4.90
2022-11-27T22:54:31.686Z,4.90
2022-11-27T22:58:36.054Z,4.94
2022-11-27T23:02:39.813Z,4.95
2022-11-27T23:06:41.182Z,4.96
2022-11-27T23:10:42.468Z,5.00
2022-11-27T23:14:44.019Z,5.02
2022-11-27T23:18:45.962Z,5.00
2022-11-27T23:22:47.365Z,5.03
2022-11-27T23:26:48.701Z,5.07
2022-11-27T23:31:08.491Z,5.12
2022-11-27T23:35:11.621Z,5.14
2022-11-27T23:39:13.841Z,5.20
2022-11-27T23:43:15.131Z,5.22
2022-11-27T23:47:16.412Z,5.26
2022-11-27T23:51:19.962Z,5.29
2022-11-27T23:55:21.364Z,5.28
2022-11-27T23:59:23.114Z,5.27
